createdAt,value
2022-07-27T00:01:04.700Z,19.70
2022-07-27T00:03:34.007Z,19.70
2022-07-27T00:06:01.889Z,19.60
2022-07-27T00:08:29.777Z,19.50
2022-07-27T00:10:57.743Z,19.90
2022-07-27T00:13:26.131Z,19.60
2022-07-27T00:15:54.119Z,19.50
2022-07-27T00:18:22.499Z,19.60
2022-07-27T00:20:51.820Z,19.40
2022-07-27T00:23:20.972Z,19.70
2022-07-27T00:25:48.922Z,19.40
2022-07-27T00:28:16.899Z,19.50
2022-07-27T00:30:44.902Z,19.60
2022-07-27T00:33:16.930Z,19.60
2022-07-27T00:35:45.700Z,19.60
2022-07-27T00:38:16.422Z,19.80
2022-07-27T00:40:45.105Z,19.60
2022-07-27T00:43:13.270Z,19.50
2022-07-27T00:45:41.646Z,19.50
2022-07-27T00:48:09.569Z,19.50
2022-07-27T00:50:38.646Z,19.40
2022-07-27T00:53:06.621Z,19.50
2022-07-27T00:55:36.089Z,19.40
2022-07-27T00:58:05.842Z,19.40
2022-07-27T01:00:33.768Z,19.40
2022-07-27T01:03:02.477Z,19.50
2022-07-27T01:05:37.902Z,19.60
2022-07-27T01:08:12.377Z,19.30
2022-07-27T01:10:42.224Z,19.60
2022-07-27T01:13:12.760Z,19.40
2022-07-27T01:15:42.388Z,19.40
2022-07-27T01:18:13.255Z,19.50
2022-07-27T01:20:41.599Z,19.60
2022-07-27T01:23:11.005Z,19.70
2022-07-27T01:25:41.385Z,19.80
2022-07-27T01:28:09.287Z,19.80
2022-07-27T01:30:37.264Z,19.90
2022-07-27T01:33:06.653Z,19.90
2022-07-27T01:35:35.321Z,19.80
2022-07-27T01:38:03.357Z,19.70
2022-07-27T01:40:33.997Z,19.80
2022-07-27T01:43:01.874Z,19.80
2022-07-27T01:45:30.048Z,19.90
2022-07-27T01:47:57.959Z,19.70
2022-07-27T01:50:25.945Z,19.60
2022-07-27T01:52:54.058Z,19.50
2022-07-27T01:55:22.094Z,19.60
2022-07-27T01:57:51.401Z,19.70
2022-07-27T02:00:19.585Z,19.80
2022-07-27T02:02:47.444Z,19.70
2022-07-27T02:05:15.364Z,19.70
2022-07-27T02:07:43.587Z,19.50
2022-07-27T02:10:11.957Z,19.50
2022-07-27T02:12:39.684Z,19.50
2022-07-27T02:15:15.463Z,19.40
2022-07-27T02:17:44.998Z,19.30
2022-07-27T02:20:15.209Z,19.20
2022-07-27T02:22:43.528Z,19.20
2022-07-27T02:25:13.704Z,19.10
2022-07-27T02:27:42.519Z,19.20
2022-07-27T02:30:13.752Z,19.20
2022-07-27T02:32:48.018Z,19.10
2022-07-27T02:35:19.881Z,19.10
2022-07-27T02:37:49.165Z,19.10
2022-07-27T02:40:18.449Z,19.00
2022-07-27T02:42:46.811Z,19.10
2022-07-27T02:45:16.690Z,19.10
2022-07-27T02:47:45.084Z,19.00
2022-07-27T02:50:13.428Z,19.00
2022-07-27T02:52:42.214Z,18.90
2022-07-27T02:55:11.067Z,18.90
2022-07-27T02:57:41.079Z,19.00
2022-07-27T03:00:12.404Z,18.90
2022-07-27T03:02:41.920Z,18.90
2022-07-27T03:05:11.490Z,18.80
2022-07-27T03:07:39.683Z,18.90
2022-07-27T03:10:08.770Z,18.90
2022-07-27T03:12:36.639Z,18.80
2022-07-27T03:15:05.282Z,18.90
2022-07-27T03:17:33.852Z,19.00
2022-07-27T03:20:03.291Z,19.10
2022-07-27T03:22:32.612Z,19.20
2022-07-27T03:25:00.836Z,19.10
2022-07-27T03:27:29.729Z,19.30
2022-07-27T03:29:58.052Z,19.20
2022-07-27T03:32:26.000Z,19.30
2022-07-27T03:34:54.026Z,19.40
2022-07-27T03:37:23.269Z,19.40
2022-07-27T03:39:51.130Z,19.30
2022-07-27T03:42:19.080Z,19.60
2022-07-27T03:44:46.968Z,19.60
2022-07-27T03:47:14.817Z,19.50
2022-07-27T03:49:42.699Z,19.50
2022-07-27T03:52:15.676Z,19.60
2022-07-27T03:54:46.886Z,19.60
2022-07-27T03:57:15.272Z,19.60
2022-07-27T03:59:43.485Z,19.60
2022-07-27T04:02:11.463Z,19.70
2022-07-27T04:04:39.385Z,19.80
2022-07-27T04:07:07.753Z,19.80
2022-07-27T04:09:36.067Z,19.70
2022-07-27T04:12:05.960Z,19.70
2022-07-27T04:14:33.986Z,19.80
2022-07-27T04:17:02.003Z,19.80
2022-07-27T04:19:29.926Z,19.70
2022-07-27T04:21:58.172Z,19.80
2022-07-27T04:24:26.475Z,19.70
2022-07-27T04:26:54.313Z,19.80
2022-07-27T04:29:23.900Z,19.80
2022-07-27T04:31:52.107Z,19.80
2022-07-27T04:34:21.223Z,19.90
2022-07-27T04:36:49.877Z,20.00
2022-07-27T04:39:17.889Z,19.90
2022-07-27T04:41:45.825Z,19.90
2022-07-27T04:44:13.724Z,19.80
2022-07-27T04:46:42.984Z,20.00
2022-07-27T04:49:11.224Z,19.90
2022-07-27T04:51:39.310Z,19.90
2022-07-27T04:54:07.249Z,19.90
2022-07-27T04:56:35.131Z,19.90
2022-07-27T04:59:02.994Z,19.90
2022-07-27T05:01:35.123Z,20.00
2022-07-27T05:04:05.238Z,20.00
2022-07-27T05:06:33.485Z,20.00
2022-07-27T05:09:01.485Z,20.00
2022-07-27T05:11:29.391Z,20.10
2022-07-27T05:13:57.422Z,20.10
2022-07-27T05:16:28.817Z,20.30
2022-07-27T05:18:57.662Z,20.10
2022-07-27T05:21:29.156Z,20.10
2022-07-27T05:23:57.020Z,20.10
2022-07-27T05:26:24.940Z,20.30
2022-07-27T05:28:53.197Z,20.10
2022-07-27T05:31:21.197Z,20.20
2022-07-27T05:33:54.615Z,20.10
2022-07-27T05:36:27.129Z,20.20
2022-07-27T05:38:55.104Z,20.20
2022-07-27T05:41:24.652Z,20.30
2022-07-27T05:43:54.325Z,20.20
2022-07-27T05:46:29.637Z,20.20
2022-07-27T05:49:00.523Z,20.20
2022-07-27T05:51:30.945Z,20.20
2022-07-27T05:53:58.942Z,20.40
2022-07-27T05:56:27.554Z,20.10
2022-07-27T05:58:55.475Z,20.10
2022-07-27T06:01:24.919Z,20.10
2022-07-27T06:03:52.898Z,20.00
2022-07-27T06:06:38.262Z,20.00
2022-07-27T06:09:07.507Z,19.90
2022-07-27T06:11:36.758Z,19.90
2022-07-27T06:14:04.723Z,19.80
2022-07-27T06:16:32.701Z,19.80
2022-07-27T06:19:00.636Z,19.90
2022-07-27T06:21:28.910Z,19.70
2022-07-27T06:23:56.980Z,19.80
2022-07-27T06:26:26.203Z,19.90
2022-07-27T06:28:58.695Z,19.90
2022-07-27T06:31:27.403Z,19.90
2022-07-27T06:34:03.942Z,19.90
2022-07-27T06:36:36.139Z,20.00
2022-07-27T06:39:04.081Z,20.00
2022-07-27T06:41:34.537Z,20.00
2022-07-27T06:44:02.405Z,20.00
2022-07-27T06:46:30.431Z,20.30
2022-07-27T06:48:58.365Z,20.00
2022-07-27T06:51:26.322Z,20.10
2022-07-27T06:53:54.805Z,20.10
2022-07-27T06:56:23.014Z,20.20
2022-07-27T06:58:52.751Z,20.30
2022-07-27T07:01:20.709Z,20.30
2022-07-27T07:03:48.744Z,20.30
2022-07-27T07:06:16.766Z,20.30
2022-07-27T07:08:44.736Z,20.40
2022-07-27T07:11:14.005Z,20.50
2022-07-27T07:13:44.880Z,20.50
2022-07-27T07:16:14.708Z,20.60
2022-07-27T07:18:42.643Z,20.60
2022-07-27T07:21:10.568Z,20.70
2022-07-27T07:23:38.487Z,21.00
2022-07-27T07:26:06.975Z,20.90
2022-07-27T07:28:36.202Z,21.00
2022-07-27T07:31:04.279Z,20.90
2022-07-27T07:33:33.549Z,21.00
2022-07-27T07:36:13.133Z,20.90
2022-07-27T07:38:42.811Z,21.10
2022-07-27T07:41:11.004Z,21.10
2022-07-27T07:43:39.756Z,21.20
2022-07-27T07:46:08.729Z,21.20
2022-07-27T07:48:39.450Z,21.10
2022-07-27T07:51:07.617Z,21.20
2022-07-27T07:53:39.310Z,21.20
2022-07-27T07:56:10.225Z,21.30
2022-07-27T07:58:38.518Z,21.30
2022-07-27T08:01:06.422Z,21.30
2022-07-27T08:03:34.364Z,21.30
2022-07-27T08:06:03.653Z,21.40
2022-07-27T08:08:31.615Z,21.40
2022-07-27T08:10:59.478Z,21.30
2022-07-27T08:13:27.386Z,21.30
2022-07-27T08:15:55.397Z,21.20
2022-07-27T08:18:23.310Z,21.30
2022-07-27T08:20:51.390Z,21.20
2022-07-27T08:23:20.786Z,21.10
2022-07-27T08:25:48.842Z,21.00
2022-07-27T08:28:16.715Z,21.00
2022-07-27T08:30:45.960Z,21.00
2022-07-27T08:33:14.109Z,21.10
2022-07-27T08:35:42.224Z,21.10
2022-07-27T08:38:10.745Z,21.00
2022-07-27T08:40:44.503Z,21.30
2022-07-27T08:43:21.865Z,21.20
2022-07-27T08:45:56.069Z,21.20
2022-07-27T08:48:25.120Z,21.30
2022-07-27T08:50:53.300Z,21.30
2022-07-27T08:53:22.391Z,21.40
2022-07-27T08:55:51.925Z,21.50
2022-07-27T08:58:37.484Z,21.60
2022-07-27T09:01:05.991Z,21.50
2022-07-27T09:03:33.913Z,21.40
2022-07-27T09:06:01.872Z,21.40
2022-07-27T09:08:31.612Z,21.40
2022-07-27T09:11:03.578Z,21.60
2022-07-27T09:13:34.253Z,21.50
2022-07-27T09:16:17.472Z,21.50
2022-07-27T09:18:46.592Z,21.40
2022-07-27T09:21:17.377Z,21.40
2022-07-27T09:23:48.074Z,21.30
2022-07-27T09:26:35.862Z,21.30
2022-07-27T09:29:06.276Z,21.40
2022-07-27T09:31:41.691Z,21.40
2022-07-27T09:34:10.195Z,21.40
2022-07-27T09:36:51.963Z,21.20
2022-07-27T09:39:21.924Z,21.40
2022-07-27T09:41:53.136Z,21.60
2022-07-27T09:44:42.229Z,21.70
2022-07-27T09:47:22.985Z,21.90
2022-07-27T09:49:50.993Z,21.90
2022-07-27T09:52:24.823Z,21.80
2022-07-27T09:54:52.763Z,21.90
2022-07-27T09:57:22.027Z,21.80
2022-07-27T09:59:49.995Z,21.80
2022-07-27T10:02:18.179Z,21.80
2022-07-27T10:04:47.470Z,21.90
2022-07-27T10:07:15.467Z,22.00
2022-07-27T10:09:46.862Z,22.00
2022-07-27T10:12:14.771Z,22.00
2022-07-27T10:14:44.989Z,22.00
2022-07-27T10:17:13.692Z,22.00
2022-07-27T10:19:46.648Z,22.20
2022-07-27T10:22:14.791Z,22.40
2022-07-27T10:24:42.729Z,22.20
2022-07-27T10:27:22.206Z,22.20
2022-07-27T10:29:52.625Z,22.10
2022-07-27T10:32:30.963Z,22.00
2022-07-27T10:34:59.608Z,22.20
2022-07-27T10:37:29.177Z,22.40
2022-07-27T10:40:13.201Z,22.60
2022-07-27T10:42:41.787Z,22.70
2022-07-27T10:45:12.725Z,22.80
2022-07-27T10:47:44.675Z,23.00
2022-07-27T10:50:31.961Z,23.10
2022-07-27T10:53:03.158Z,23.20
2022-07-27T10:55:48.196Z,23.30
2022-07-27T10:58:51.266Z,23.40
2022-07-27T11:01:24.046Z,23.40
2022-07-27T11:03:57.000Z,23.40
2022-07-27T11:06:34.649Z,23.50
2022-07-27T11:11:59.697Z,23.50
2022-07-27T11:14:31.289Z,23.40
2022-07-27T11:17:25.547Z,23.40
2022-07-27T11:19:54.736Z,23.40
2022-07-27T11:25:21.583Z,23.20
2022-07-27T11:27:51.336Z,23.20
2022-07-27T11:30:23.950Z,23.20
2022-07-27T11:32:53.611Z,23.10
2022-07-27T11:35:21.918Z,23.20
2022-07-27T11:38:03.132Z,23.40
2022-07-27T11:43:37.572Z,23.90
2022-07-27T11:46:14.190Z,23.80
2022-07-27T11:49:05.898Z,23.90
2022-07-27T11:51:35.386Z,23.60
2022-07-27T11:54:05.370Z,23.40
2022-07-27T11:56:36.240Z,23.40
2022-07-27T11:59:10.424Z,23.30
2022-07-27T12:01:40.625Z,23.40
2022-07-27T12:04:13.933Z,23.50
2022-07-27T12:06:44.419Z,23.90
2022-07-27T12:09:15.618Z,24.00
2022-07-27T12:11:54.538Z,24.00
2022-07-27T12:14:36.894Z,23.90
2022-07-27T12:17:10.211Z,23.90
2022-07-27T12:19:40.197Z,23.70
2022-07-27T12:22:08.647Z,23.70
2022-07-27T12:24:38.841Z,23.90
2022-07-27T12:27:09.851Z,23.60
2022-07-27T12:30:00.925Z,23.40
2022-07-27T12:32:31.144Z,23.60
2022-07-27T12:35:00.845Z,24.00
2022-07-27T12:37:33.106Z,24.40
2022-07-27T12:40:01.501Z,24.60
2022-07-27T12:42:38.250Z,24.80
2022-07-27T12:45:15.651Z,24.80
2022-07-27T12:47:43.631Z,24.70
2022-07-27T12:50:15.578Z,24.80
2022-07-27T12:52:46.813Z,25.00
2022-07-27T12:55:17.667Z,25.00
2022-07-27T12:57:55.816Z,25.20
2022-07-27T13:00:30.930Z,25.40
2022-07-27T13:03:01.958Z,25.60
2022-07-27T13:05:31.719Z,25.80
2022-07-27T13:07:59.872Z,25.80
2022-07-27T13:10:28.008Z,25.50
2022-07-27T13:12:56.586Z,25.50
2022-07-27T13:15:24.537Z,25.70
2022-07-27T13:17:52.640Z,25.70
2022-07-27T13:20:20.748Z,25.60
2022-07-27T13:22:50.275Z,25.40
2022-07-27T13:25:19.207Z,25.10
2022-07-27T13:27:48.169Z,24.90
2022-07-27T13:30:17.556Z,24.80
2022-07-27T13:32:46.709Z,24.90
2022-07-27T13:35:16.587Z,24.70
2022-07-27T13:37:45.331Z,24.80
2022-07-27T13:40:15.632Z,24.50
2022-07-27T13:42:43.540Z,24.50
2022-07-27T13:45:12.350Z,24.40
2022-07-27T13:47:41.345Z,24.30
2022-07-27T13:50:17.939Z,24.30
2022-07-27T13:52:47.260Z,24.30
2022-07-27T13:55:17.400Z,24.20
2022-07-27T13:57:45.759Z,24.20
2022-07-27T14:00:14.767Z,24.20
2022-07-27T14:02:43.301Z,24.30
2022-07-27T14:05:14.189Z,24.10
2022-07-27T14:07:43.428Z,24.20
2022-07-27T14:10:30.805Z,24.40
2022-07-27T14:13:07.755Z,24.40
2022-07-27T14:15:54.569Z,24.70
2022-07-27T14:18:25.356Z,24.70
2022-07-27T14:20:53.574Z,24.60
2022-07-27T14:23:21.882Z,24.40
2022-07-27T14:25:49.850Z,24.20
2022-07-27T14:28:19.376Z,24.20
2022-07-27T14:30:47.813Z,24.10
2022-07-27T14:33:16.123Z,24.10
2022-07-27T14:35:44.307Z,24.00
2022-07-27T14:38:12.622Z,23.90
2022-07-27T14:40:40.818Z,24.00
2022-07-27T14:43:09.692Z,23.90
2022-07-27T14:45:45.032Z,23.90
2022-07-27T14:48:21.502Z,24.00
2022-07-27T14:50:53.309Z,24.00
2022-07-27T14:53:21.199Z,24.00
2022-07-27T14:55:49.232Z,23.90
2022-07-27T14:58:17.245Z,23.80
2022-07-27T15:00:46.712Z,23.90
2022-07-27T15:03:15.252Z,23.90
2022-07-27T15:05:49.326Z,23.90
2022-07-27T15:08:17.763Z,24.00
2022-07-27T15:10:46.560Z,24.10
2022-07-27T15:13:14.638Z,24.00
2022-07-27T15:15:43.001Z,23.90
2022-07-27T15:18:12.311Z,23.90
2022-07-27T15:20:40.618Z,24.00
2022-07-27T15:23:08.790Z,24.10
2022-07-27T15:25:36.756Z,24.00
2022-07-27T15:28:04.957Z,23.90
2022-07-27T15:30:38.218Z,23.90
2022-07-27T15:33:06.628Z,23.80
2022-07-27T15:35:36.036Z,23.70
2022-07-27T15:38:09.478Z,23.70
2022-07-27T15:40:41.724Z,23.80
2022-07-27T15:43:11.802Z,23.70
2022-07-27T15:45:40.321Z,23.60
2022-07-27T15:48:09.426Z,23.60
2022-07-27T15:50:40.215Z,23.60
2022-07-27T15:53:08.330Z,23.60
2022-07-27T15:55:37.640Z,23.60
2022-07-27T15:58:05.878Z,23.60
2022-07-27T16:00:39.193Z,23.50
2022-07-27T16:03:08.939Z,23.60
2022-07-27T16:05:38.541Z,23.70
2022-07-27T16:08:09.089Z,23.70
2022-07-27T16:10:45.756Z,23.70
2022-07-27T16:13:14.605Z,23.60
2022-07-27T16:16:00.597Z,23.60
2022-07-27T16:18:29.445Z,23.50
2022-07-27T16:20:59.070Z,23.50
2022-07-27T16:23:27.519Z,23.50
2022-07-27T16:26:04.500Z,23.60
2022-07-27T16:28:34.677Z,23.70
2022-07-27T16:31:03.186Z,23.50
2022-07-27T16:33:31.515Z,23.60
2022-07-27T16:36:00.773Z,23.40
2022-07-27T16:38:29.339Z,23.50
2022-07-27T16:40:57.296Z,23.60
2022-07-27T16:43:38.034Z,23.60
2022-07-27T16:46:08.626Z,23.50
2022-07-27T16:48:41.623Z,23.50
2022-07-27T16:51:13.012Z,23.50
2022-07-27T16:53:43.184Z,23.40
2022-07-27T16:56:11.935Z,23.40
2022-07-27T16:58:39.944Z,23.50
2022-07-27T17:01:08.429Z,23.20
2022-07-27T17:03:36.362Z,23.20
2022-07-27T17:06:06.322Z,23.10
2022-07-27T17:08:36.646Z,23.10
2022-07-27T17:11:06.130Z,23.00
2022-07-27T17:13:34.835Z,23.10
2022-07-27T17:16:03.246Z,23.10
2022-07-27T17:18:37.223Z,23.10
2022-07-27T17:21:09.267Z,23.10
2022-07-27T17:23:39.884Z,23.00
2022-07-27T17:26:09.106Z,22.90
2022-07-27T17:28:39.282Z,22.70
2022-07-27T17:31:09.485Z,23.00
2022-07-27T17:33:38.375Z,23.00
2022-07-27T17:36:12.230Z,23.00
2022-07-27T17:38:44.057Z,23.10
2022-07-27T17:41:12.357Z,23.10
2022-07-27T17:43:40.417Z,23.10
2022-07-27T17:46:09.338Z,23.30
2022-07-27T17:48:38.451Z,23.10
2022-07-27T17:51:07.747Z,23.10
2022-07-27T17:53:35.756Z,23.20
2022-07-27T17:56:05.476Z,23.40
2022-07-27T17:58:33.361Z,23.30
2022-07-27T18:01:01.292Z,23.40
2022-07-27T18:03:29.165Z,23.20
2022-07-27T18:05:57.333Z,23.40
2022-07-27T18:08:31.162Z,23.20
2022-07-27T18:10:59.075Z,23.30
2022-07-27T18:13:38.039Z,23.20
2022-07-27T18:16:09.066Z,23.20
2022-07-27T18:18:37.339Z,23.10
2022-07-27T18:21:05.721Z,23.10
2022-07-27T18:23:34.238Z,23.10
2022-07-27T18:26:02.182Z,23.10
2022-07-27T18:28:38.768Z,23.10
2022-07-27T18:31:07.776Z,23.10
2022-07-27T18:33:37.025Z,23.00
2022-07-27T18:36:06.241Z,23.10
2022-07-27T18:38:34.278Z,23.10
2022-07-27T18:41:02.887Z,23.10
2022-07-27T18:43:32.244Z,23.00
2022-07-27T18:46:00.681Z,23.00
2022-07-27T18:48:28.802Z,22.80
2022-07-27T18:50:56.851Z,22.80
2022-07-27T18:53:24.870Z,22.70
2022-07-27T18:55:56.222Z,22.60
2022-07-27T18:58:24.892Z,22.70
2022-07-27T19:00:54.998Z,22.70
2022-07-27T19:03:24.532Z,22.80
2022-07-27T19:05:53.064Z,22.60
2022-07-27T19:08:21.201Z,22.70
2022-07-27T19:10:49.150Z,22.70
2022-07-27T19:13:17.033Z,22.60
2022-07-27T19:15:45.335Z,22.50
2022-07-27T19:18:14.570Z,22.50
2022-07-27T19:20:42.579Z,22.50
2022-07-27T19:23:12.176Z,22.40
2022-07-27T19:25:40.258Z,22.40
2022-07-27T19:28:08.170Z,22.40
2022-07-27T19:30:36.181Z,22.30
2022-07-27T19:33:04.206Z,22.30
2022-07-27T19:35:33.485Z,22.30
2022-07-27T19:38:02.193Z,22.30
2022-07-27T19:40:46.175Z,22.20
2022-07-27T19:43:15.908Z,22.40
2022-07-27T19:45:44.030Z,22.30
2022-07-27T19:48:12.196Z,22.20
2022-07-27T19:50:42.098Z,22.20
2022-07-27T19:53:20.945Z,22.20
2022-07-27T19:55:49.100Z,22.20
2022-07-27T19:58:17.036Z,22.20
2022-07-27T20:00:47.797Z,22.40
2022-07-27T20:03:15.673Z,22.00
2022-07-27T20:05:44.974Z,22.00
2022-07-27T20:08:13.132Z,22.10
2022-07-27T20:10:42.365Z,22.00
2022-07-27T20:13:10.706Z,22.00
2022-07-27T20:15:38.789Z,21.90
2022-07-27T20:18:07.571Z,21.80
2022-07-27T20:20:35.692Z,21.90
2022-07-27T20:23:05.097Z,21.80
2022-07-27T20:25:33.045Z,21.80
2022-07-27T20:28:00.895Z,21.70
2022-07-27T20:30:28.863Z,21.70
2022-07-27T20:32:56.820Z,21.80
2022-07-27T20:35:24.678Z,21.60
2022-07-27T20:38:07.064Z,21.60
2022-07-27T20:40:34.946Z,21.50
2022-07-27T20:43:02.809Z,21.60
2022-07-27T20:45:30.982Z,21.50
2022-07-27T20:47:58.878Z,21.60
2022-07-27T20:50:26.855Z,21.60
2022-07-27T20:52:54.721Z,21.50
2022-07-27T20:55:23.941Z,21.70
2022-07-27T20:57:52.088Z,21.50
2022-07-27T21:00:21.210Z,21.50
2022-07-27T21:02:51.483Z,21.40
2022-07-27T21:05:21.500Z,21.30
2022-07-27T21:07:49.409Z,21.30
2022-07-27T21:10:17.302Z,21.30
2022-07-27T21:12:46.981Z,21.20
2022-07-27T21:15:14.890Z,21.20
2022-07-27T21:17:43.255Z,21.10
2022-07-27T21:20:13.556Z,21.20
2022-07-27T21:22:41.814Z,21.10
2022-07-27T21:25:09.545Z,21.10
2022-07-27T21:27:37.519Z,21.10
2022-07-27T21:30:09.538Z,21.20
2022-07-27T21:32:37.397Z,21.00
2022-07-27T21:35:07.113Z,21.10
2022-07-27T21:37:35.387Z,21.20
2022-07-27T21:40:03.318Z,21.10
2022-07-27T21:42:32.997Z,21.20
2022-07-27T21:45:00.891Z,21.00
2022-07-27T21:47:31.912Z,21.00
2022-07-27T21:49:59.945Z,21.00
2022-07-27T21:52:27.827Z,21.10
2022-07-27T21:54:55.757Z,21.00
2022-07-27T21:57:23.606Z,21.10
2022-07-27T21:59:51.508Z,21.00
2022-07-27T22:02:19.432Z,21.10
2022-07-27T22:04:48.640Z,21.00
2022-07-27T22:07:19.387Z,21.10
2022-07-27T22:09:47.550Z,21.00
2022-07-27T22:12:15.405Z,20.80
2022-07-27T22:14:43.404Z,20.90
2022-07-27T22:17:11.284Z,20.90
2022-07-27T22:19:39.267Z,21.00
2022-07-27T22:22:08.525Z,21.00
2022-07-27T22:24:36.462Z,21.10
2022-07-27T22:27:05.826Z,20.90
2022-07-27T22:29:35.403Z,20.90
2022-07-27T22:32:03.644Z,21.00
2022-07-27T22:34:31.744Z,21.00
2022-07-27T22:37:00.462Z,20.90
2022-07-27T22:39:29.895Z,20.90
2022-07-27T22:41:57.813Z,20.80
2022-07-27T22:44:25.680Z,20.80
2022-07-27T22:46:53.633Z,20.90
2022-07-27T22:49:22.671Z,20.90
2022-07-27T22:51:54.247Z,20.90
2022-07-27T22:54:22.573Z,20.90
2022-07-27T22:56:51.907Z,20.80
2022-07-27T22:59:19.814Z,20.80
2022-07-27T23:01:48.481Z,20.80
2022-07-27T23:04:17.734Z,20.80
2022-07-27T23:06:46.175Z,20.80
2022-07-27T23:09:14.303Z,20.90
2022-07-27T23:11:42.465Z,20.70
2022-07-27T23:14:12.321Z,20.70
2022-07-27T23:16:40.612Z,20.70
2022-07-27T23:19:08.666Z,20.60
2022-07-27T23:21:37.410Z,20.70
2022-07-27T23:24:05.829Z,20.70
2022-07-27T23:26:33.798Z,20.70
2022-07-27T23:29:02.093Z,20.70
2022-07-27T23:31:31.445Z,20.70
2022-07-27T23:33:59.433Z,20.60
2022-07-27T23:36:27.631Z,20.90
2022-07-27T23:38:55.586Z,20.60
2022-07-27T23:41:23.528Z,20.70
2022-07-27T23:43:51.388Z,20.70
2022-07-27T23:46:19.404Z,20.70
2022-07-27T23:48:48.808Z,20.60
2022-07-27T23:51:18.058Z,20.50
2022-07-27T23:53:45.984Z,20.50
2022-07-27T23:56:13.881Z,20.50
2022-07-27T23:58:41.753Z,20.50
